sensor_id;sensor_type;location;lat;lon;timestamp;temperature;humidity
6106;DHT22;3083;51.508;7.966;2022-12-07T00:00:36;3.00;99.90
6106;DHT22;3083;51.508;7.966;2022-12-07T00:03:03;3.00;99.90
6106;DHT22;3083;51.508;7.966;2022-12-07T00:05:30;3.00;99.90
6106;DHT22;3083;51.508;7.966;2022-12-07T00:07:57;3.00;99.90
6106;DHT22;3083;51.508;7.966;2022-12-07T00:10:24;3.10;99.90
6106;DHT22;3083;51.508;7.966;2022-12-07T00:12:51;3.10;99.90
6106;DHT22;3083;51.508;7.966;2022-12-07T00:15:19;3.10;99.90
6106;DHT22;3083;51.508;7.966;2022-12-07T00:17:46;3.00;99.90
6106;DHT22;3083;51.508;7.966;2022-12-07T00:20:13;3.10;99.90
6106;DHT22;3083;51.508;7.966;2022-12-07T00:22:40;3.00;99.90
6106;DHT22;3083;51.508;7.966;2022-12-07T00:25:07;3.00;99.90
6106;DHT22;3083;51.508;7.966;2022-12-07T00:27:34;3.00;99.90
6106;DHT22;3083;51.508;7.966;2022-12-07T00:30:01;3.00;99.90
6106;DHT22;3083;51.508;7.966;2022-12-07T00:32:29;3.00;99.90
6106;DHT22;3083;51.508;7.966;2022-12-07T00:34:56;3.10;99.90
6106;DHT22;3083;51.508;7.966;2022-12-07T00:37:23;3.10;99.90
6106;DHT22;3083;51.508;7.966;2022-12-07T00:39:50;3.00;99.90
6106;DHT22;3083;51.508;7.966;2022-12-07T00:42:16;3.10;99.90
6106;DHT22;3083;51.508;7.966;2022-12-07T00:44:43;3.00;99.90
6106;DHT22;3083;51.508;7.966;2022-12-07T00:47:10;3.00;99.90
6106;DHT22;3083;51.508;7.966;2022-12-07T00:49:39;3.10;99.90
6106;DHT22;3083;51.508;7.966;2022-12-07T00:52:05;3.10;99.90
6106;DHT22;3083;51.508;7.966;2022-12-07T00:54:32;3.10;99.90
6106;DHT22;3083;51.508;7.966;2022-12-07T00:56:59;3.10;99.90
6106;DHT22;3083;51.508;7.966;2022-12-07T00:59:26;3.10;99.90
6106;DHT22;3083;51.508;7.966;2022-12-07T01:01:53;3.10;99.90
6106;DHT22;3083;51.508;7.966;2022-12-07T01:04:20;3.20;99.90
6106;DHT22;3083;51.508;7.966;2022-12-07T01:06:48;3.10;99.90
6106;DHT22;3083;51.508;7.966;2022-12-07T01:09:15;3.10;99.90
6106;DHT22;3083;51.508;7.966;2022-12-07T01:11:42;3.10;99.90
6106;DHT22;3083;51.508;7.966;2022-12-07T01:14:09;3.10;99.90
6106;DHT22;3083;51.508;7.966;2022-12-07T01:16:36;3.10;99.90
6106;DHT22;3083;51.508;7.966;2022-12-07T01:19:03;3.10;99.90
6106;DHT22;3083;51.508;7.966;2022-12-07T01:21:32;3.10;99.90
6106;DHT22;3083;51.508;7.966;2022-12-07T01:24:02;3.10;99.90
6106;DHT22;3083;51.508;7.966;2022-12-07T01:26:29;3.10;99.90
6106;DHT22;3083;51.508;7.966;2022-12-07T01:28:56;3.10;99.90
6106;DHT22;3083;51.508;7.966;2022-12-07T01:31:25;3.10;99.90
6106;DHT22;3083;51.508;7.966;2022-12-07T01:33:55;3.10;99.90
6106;DHT22;3083;51.508;7.966;2022-12-07T01:36:23;3.10;99.90
6106;DHT22;3083;51.508;7.966;2022-12-07T01:38:54;3.10;99.90
6106;DHT22;3083;51.508;7.966;2022-12-07T01:41:24;3.20;99.90
6106;DHT22;3083;51.508;7.966;2022-12-07T01:44:19;3.20;99.90
6106;DHT22;3083;51.508;7.966;2022-12-07T01:46:48;3.20;99.90
6106;DHT22;3083;51.508;7.966;2022-12-07T01:49:29;3.20;99.90
6106;DHT22;3083;51.508;7.966;2022-12-07T01:52:06;3.20;99.90
6106;DHT22;3083;51.508;7.966;2022-12-07T01:54:35;3.20;99.90
6106;DHT22;3083;51.508;7.966;2022-12-07T01:57:06;3.20;99.90
6106;DHT22;3083;51.508;7.966;2022-12-07T01:59:34;3.20;99.90
6106;DHT22;3083;51.508;7.966;2022-12-07T02:02:02;3.20;99.90
6106;DHT22;3083;51.508;7.966;2022-12-07T02:04:30;3.20;99.90
6106;DHT22;3083;51.508;7.966;2022-12-07T02:06:58;3.20;99.90
6106;DHT22;3083;51.508;7.966;2022-12-07T02:09:24;3.20;99.90
6106;DHT22;3083;51.508;7.966;2022-12-07T02:11:52;3.20;99.90
6106;DHT22;3083;51.508;7.966;2022-12-07T02:14:21;3.20;99.90
6106;DHT22;3083;51.508;7.966;2022-12-07T02:16:59;3.20;99.90
6106;DHT22;3083;51.508;7.966;2022-12-07T02:25:47;3.10;99.90
6106;DHT22;3083;51.508;7.966;2022-12-07T02:28:23;3.20;99.90
6106;DHT22;3083;51.508;7.966;2022-12-07T02:30:58;3.20;99.90
6106;DHT22;3083;51.508;7.966;2022-12-07T02:33:31;3.20;99.90
6106;DHT22;3083;51.508;7.966;2022-12-07T02:36:02;3.20;99.90
6106;DHT22;3083;51.508;7.966;2022-12-07T02:38:34;3.20;99.90
6106;DHT22;3083;51.508;7.966;2022-12-07T02:41:07;3.20;99.90
6106;DHT22;3083;51.508;7.966;2022-12-07T02:43:40;3.20;99.90
6106;DHT22;3083;51.508;7.966;2022-12-07T02:46:13;3.20;99.90
6106;DHT22;3083;51.508;7.966;2022-12-07T02:48:42;3.20;99.90
6106;DHT22;3083;51.508;7.966;2022-12-07T02:51:09;3.20;99.90
6106;DHT22;3083;51.508;7.966;2022-12-07T02:53:38;3.20;99.90
6106;DHT22;3083;51.508;7.966;2022-12-07T02:56:09;3.20;99.90
6106;DHT22;3083;51.508;7.966;2022-12-07T02:58:47;3.20;99.90
6106;DHT22;3083;51.508;7.966;2022-12-07T03:01:25;3.20;99.90
6106;DHT22;3083;51.508;7.966;2022-12-07T03:04:00;3.20;99.90
6106;DHT22;3083;51.508;7.966;2022-12-07T03:06:32;3.20;99.90
6106;DHT22;3083;51.508;7.966;2022-12-07T03:09:09;3.20;99.90
6106;DHT22;3083;51.508;7.966;2022-12-07T03:11:43;3.20;99.90
6106;DHT22;3083;51.508;7.966;2022-12-07T03:14:14;3.20;99.90
6106;DHT22;3083;51.508;7.966;2022-12-07T03:16:47;3.20;99.90
6106;DHT22;3083;51.508;7.966;2022-12-07T03:19:18;3.20;99.90
6106;DHT22;3083;51.508;7.966;2022-12-07T03:21:49;3.20;99.90
6106;DHT22;3083;51.508;7.966;2022-12-07T03:24:22;3.10;99.90
6106;DHT22;3083;51.508;7.966;2022-12-07T03:26:53;3.20;99.90
6106;DHT22;3083;51.508;7.966;2022-12-07T03:29:25;3.20;99.90
6106;DHT22;3083;51.508;7.966;2022-12-07T03:31:58;3.20;99.90
6106;DHT22;3083;51.508;7.966;2022-12-07T03:34:30;3.20;99.90
6106;DHT22;3083;51.508;7.966;2022-12-07T03:37:03;3.20;99.90
6106;DHT22;3083;51.508;7.966;2022-12-07T03:39:36;3.20;99.90
6106;DHT22;3083;51.508;7.966;2022-12-07T03:42:07;3.20;99.90
6106;DHT22;3083;51.508;7.966;2022-12-07T03:44:35;3.10;99.90
6106;DHT22;3083;51.508;7.966;2022-12-07T03:47:06;3.10;99.90
6106;DHT22;3083;51.508;7.966;2022-12-07T03:49:40;3.10;99.90
6106;DHT22;3083;51.508;7.966;2022-12-07T03:52:12;3.10;99.90
6106;DHT22;3083;51.508;7.966;2022-12-07T03:54:47;3.10;99.90
6106;DHT22;3083;51.508;7.966;2022-12-07T03:57:16;3.10;99.90
6106;DHT22;3083;51.508;7.966;2022-12-07T03:59:43;3.10;99.90
6106;DHT22;3083;51.508;7.966;2022-12-07T04:02:13;3.10;99.90
6106;DHT22;3083;51.508;7.966;2022-12-07T04:04:40;3.10;99.90
6106;DHT22;3083;51.508;7.966;2022-12-07T04:07:08;3.10;99.90
6106;DHT22;3083;51.508;7.966;2022-12-07T04:09:35;3.10;99.90
6106;DHT22;3083;51.508;7.966;2022-12-07T04:12:02;3.10;99.90
6106;DHT22;3083;51.508;7.966;2022-12-07T04:14:29;3.10;99.90
6106;DHT22;3083;51.508;7.966;2022-12-07T04:16:57;3.10;99.90
6106;DHT22;3083;51.508;7.966;2022-12-07T04:19:28;3.00;99.90
6106;DHT22;3083;51.508;7.966;2022-12-07T04:21:55;3.00;99.90
6106;DHT22;3083;51.508;7.966;2022-12-07T04:24:22;3.00;99.90
6106;DHT22;3083;51.508;7.966;2022-12-07T04:26:49;3.00;99.90
6106;DHT22;3083;51.508;7.966;2022-12-07T04:29:17;3.00;99.90
6106;DHT22;3083;51.508;7.966;2022-12-07T04:31:45;3.00;99.90
6106;DHT22;3083;51.508;7.966;2022-12-07T04:34:12;3.00;99.90
6106;DHT22;3083;51.508;7.966;2022-12-07T04:36:41;3.00;99.90
6106;DHT22;3083;51.508;7.966;2022-12-07T04:39:17;3.00;99.90
6106;DHT22;3083;51.508;7.966;2022-12-07T04:41:44;3.00;99.90
6106;DHT22;3083;51.508;7.966;2022-12-07T04:44:13;2.90;99.90
6106;DHT22;3083;51.508;7.966;2022-12-07T04:46:40;3.00;99.90
6106;DHT22;3083;51.508;7.966;2022-12-07T04:49:08;3.00;99.90
6106;DHT22;3083;51.508;7.966;2022-12-07T04:51:35;2.90;99.90
6106;DHT22;3083;51.508;7.966;2022-12-07T04:54:04;2.90;99.90
6106;DHT22;3083;51.508;7.966;2022-12-07T04:56:30;2.90;99.90
6106;DHT22;3083;51.508;7.966;2022-12-07T04:58:57;2.90;99.90
6106;DHT22;3083;51.508;7.966;2022-12-07T05:01:26;2.90;99.90
6106;DHT22;3083;51.508;7.966;2022-12-07T05:03:53;2.90;99.90
6106;DHT22;3083;51.508;7.966;2022-12-07T05:06:20;2.80;99.90
6106;DHT22;3083;51.508;7.966;2022-12-07T05:08:46;2.80;99.90
6106;DHT22;3083;51.508;7.966;2022-12-07T05:11:15;2.80;99.90
6106;DHT22;3083;51.508;7.966;2022-12-07T05:13:56;2.80;99.90
6106;DHT22;3083;51.508;7.966;2022-12-07T05:16:23;2.80;99.90
6106;DHT22;3083;51.508;7.966;2022-12-07T05:18:50;2.80;99.90
6106;DHT22;3083;51.508;7.966;2022-12-07T05:21:17;2.80;99.90
6106;DHT22;3083;51.508;7.966;2022-12-07T05:23:44;2.80;99.90
6106;DHT22;3083;51.508;7.966;2022-12-07T05:26:11;2.80;99.90
6106;DHT22;3083;51.508;7.966;2022-12-07T05:28:39;2.80;99.90
6106;DHT22;3083;51.508;7.966;2022-12-07T05:31:06;2.80;99.90
6106;DHT22;3083;51.508;7.966;2022-12-07T05:33:33;2.80;99.90
6106;DHT22;3083;51.508;7.966;2022-12-07T05:36:00;2.80;99.90
6106;DHT22;3083;51.508;7.966;2022-12-07T05:38:31;2.80;99.90
6106;DHT22;3083;51.508;7.966;2022-12-07T05:41:00;2.70;99.90
6106;DHT22;3083;51.508;7.966;2022-12-07T05:43:28;2.80;99.90
6106;DHT22;3083;51.508;7.966;2022-12-07T05:45:56;2.80;99.90
6106;DHT22;3083;51.508;7.966;2022-12-07T05:48:23;2.90;99.90
6106;DHT22;3083;51.508;7.966;2022-12-07T05:50:51;2.80;99.90
6106;DHT22;3083;51.508;7.966;2022-12-07T05:53:19;2.80;99.90
6106;DHT22;3083;51.508;7.966;2022-12-07T05:55:46;2.80;99.90
6106;DHT22;3083;51.508;7.966;2022-12-07T05:58:12;2.80;99.90
6106;DHT22;3083;51.508;7.966;2022-12-07T06:00:58;2.80;99.90
6106;DHT22;3083;51.508;7.966;2022-12-07T06:03:25;2.80;99.90
6106;DHT22;3083;51.508;7.966;2022-12-07T06:05:52;2.80;99.90
6106;DHT22;3083;51.508;7.966;2022-12-07T06:08:19;2.80;99.90
6106;DHT22;3083;51.508;7.966;2022-12-07T06:10:47;2.80;99.90
6106;DHT22;3083;51.508;7.966;2022-12-07T06:13:35;2.80;99.90
6106;DHT22;3083;51.508;7.966;2022-12-07T06:16:02;2.80;99.90
6106;DHT22;3083;51.508;7.966;2022-12-07T06:18:29;2.80;99.90
6106;DHT22;3083;51.508;7.966;2022-12-07T06:20:56;2.80;99.90
6106;DHT22;3083;51.508;7.966;2022-12-07T06:23:23;2.80;99.90
6106;DHT22;3083;51.508;7.966;2022-12-07T06:25:50;2.80;99.90
6106;DHT22;3083;51.508;7.966;2022-12-07T06:28:17;2.80;99.90
6106;DHT22;3083;51.508;7.966;2022-12-07T06:30:44;2.80;99.90
6106;DHT22;3083;51.508;7.966;2022-12-07T06:33:12;2.80;99.90
6106;DHT22;3083;51.508;7.966;2022-12-07T06:35:39;2.80;99.90
6106;DHT22;3083;51.508;7.966;2022-12-07T06:38:06;2.80;99.90
6106;DHT22;3083;51.508;7.966;2022-12-07T06:40:33;2.80;99.90
6106;DHT22;3083;51.508;7.966;2022-12-07T06:42:59;2.80;99.90
6106;DHT22;3083;51.508;7.966;2022-12-07T06:45:26;2.80;99.90
6106;DHT22;3083;51.508;7.966;2022-12-07T06:47:53;2.80;99.90
6106;DHT22;3083;51.508;7.966;2022-12-07T06:50:21;2.80;99.90
6106;DHT22;3083;51.508;7.966;2022-12-07T06:52:48;2.70;99.90
6106;DHT22;3083;51.508;7.966;2022-12-07T06:55:15;2.70;99.90
6106;DHT22;3083;51.508;7.966;2022-12-07T06:57:42;2.70;99.90
6106;DHT22;3083;51.508;7.966;2022-12-07T07:00:10;2.70;99.90
6106;DHT22;3083;51.508;7.966;2022-12-07T07:02:37;2.70;99.90
6106;DHT22;3083;51.508;7.966;2022-12-07T07:05:04;2.70;99.90
6106;DHT22;3083;51.508;7.966;2022-12-07T07:07:32;2.80;99.90
6106;DHT22;3083;51.508;7.966;2022-12-07T07:09:59;2.70;99.90
6106;DHT22;3083;51.508;7.966;2022-12-07T07:12:26;2.70;99.90
6106;DHT22;3083;51.508;7.966;2022-12-07T07:14:53;2.80;99.90
6106;DHT22;3083;51.508;7.966;2022-12-07T07:17:20;2.80;99.90
6106;DHT22;3083;51.508;7.966;2022-12-07T07:19:47;2.80;99.90
6106;DHT22;3083;51.508;7.966;2022-12-07T07:22:14;2.80;99.90
6106;DHT22;3083;51.508;7.966;2022-12-07T07:24:42;2.80;99.90
6106;DHT22;3083;51.508;7.966;2022-12-07T07:27:09;2.90;99.90
6106;DHT22;3083;51.508;7.966;2022-12-07T07:29:36;2.80;99.90
6106;DHT22;3083;51.508;7.966;2022-12-07T07:32:03;2.80;99.90
6106;DHT22;3083;51.508;7.966;2022-12-07T07:34:30;2.80;99.90
6106;DHT22;3083;51.508;7.966;2022-12-07T07:36:57;2.80;99.90
6106;DHT22;3083;51.508;7.966;2022-12-07T07:39:24;2.90;99.90
6106;DHT22;3083;51.508;7.966;2022-12-07T07:41:52;2.90;99.90
6106;DHT22;3083;51.508;7.966;2022-12-07T07:44:19;2.80;99.90
6106;DHT22;3083;51.508;7.966;2022-12-07T07:46:46;2.80;99.90
6106;DHT22;3083;51.508;7.966;2022-12-07T07:49:13;2.80;99.90
6106;DHT22;3083;51.508;7.966;2022-12-07T07:51:40;2.80;99.90
6106;DHT22;3083;51.508;7.966;2022-12-07T07:54:06;2.80;99.90
6106;DHT22;3083;51.508;7.966;2022-12-07T07:56:33;2.80;99.90
6106;DHT22;3083;51.508;7.966;2022-12-07T07:59:02;2.70;99.90
6106;DHT22;3083;51.508;7.966;2022-12-07T08:01:28;2.80;99.90
6106;DHT22;3083;51.508;7.966;2022-12-07T08:03:55;2.80;99.90
6106;DHT22;3083;51.508;7.966;2022-12-07T08:06:22;2.80;99.90
6106;DHT22;3083;51.508;7.966;2022-12-07T08:08:49;2.80;99.90
6106;DHT22;3083;51.508;7.966;2022-12-07T08:11:16;2.90;99.90
6106;DHT22;3083;51.508;7.966;2022-12-07T08:13:45;2.90;99.90
6106;DHT22;3083;51.508;7.966;2022-12-07T08:16:13;2.90;99.90
6106;DHT22;3083;51.508;7.966;2022-12-07T08:18:41;3.00;99.90
6106;DHT22;3083;51.508;7.966;2022-12-07T08:21:11;3.00;99.90
6106;DHT22;3083;51.508;7.966;2022-12-07T08:23:39;3.10;99.90
6106;DHT22;3083;51.508;7.966;2022-12-07T08:26:08;3.10;99.90
6106;DHT22;3083;51.508;7.966;2022-12-07T08:28:35;3.10;99.90
6106;DHT22;3083;51.508;7.966;2022-12-07T08:31:04;3.10;99.90
6106;DHT22;3083;51.508;7.966;2022-12-07T08:33:33;3.10;99.90
6106;DHT22;3083;51.508;7.966;2022-12-07T08:36:01;3.10;99.90
6106;DHT22;3083;51.508;7.966;2022-12-07T08:38:28;3.10;99.90
6106;DHT22;3083;51.508;7.966;2022-12-07T08:40:55;3.20;99.90
6106;DHT22;3083;51.508;7.966;2022-12-07T08:43:22;3.20;99.90
6106;DHT22;3083;51.508;7.966;2022-12-07T08:45:58;3.20;99.90
6106;DHT22;3083;51.508;7.966;2022-12-07T08:48:29;3.20;99.90
6106;DHT22;3083;51.508;7.966;2022-12-07T08:50:59;3.30;99.90
6106;DHT22;3083;51.508;7.966;2022-12-07T08:53:27;3.20;99.90
6106;DHT22;3083;51.508;7.966;2022-12-07T08:55:56;3.20;99.90
6106;DHT22;3083;51.508;7.966;2022-12-07T08:58:23;3.20;99.90
6106;DHT22;3083;51.508;7.966;2022-12-07T09:00:50;3.20;99.90
6106;DHT22;3083;51.508;7.966;2022-12-07T09:03:17;3.30;99.90
6106;DHT22;3083;51.508;7.966;2022-12-07T09:05:44;3.30;99.90
6106;DHT22;3083;51.508;7.966;2022-12-07T09:08:12;3.40;99.90
6106;DHT22;3083;51.508;7.966;2022-12-07T09:10:39;3.40;99.90
6106;DHT22;3083;51.508;7.966;2022-12-07T09:13:06;3.40;99.90
6106;DHT22;3083;51.508;7.966;2022-12-07T09:15:33;3.50;99.90
6106;DHT22;3083;51.508;7.966;2022-12-07T09:18:00;3.50;99.90
6106;DHT22;3083;51.508;7.966;2022-12-07T09:20:27;3.50;99.90
6106;DHT22;3083;51.508;7.966;2022-12-07T09:22:54;3.60;99.90
6106;DHT22;3083;51.508;7.966;2022-12-07T09:25:22;3.70;99.90
6106;DHT22;3083;51.508;7.966;2022-12-07T09:27:55;3.80;99.90
6106;DHT22;3083;51.508;7.966;2022-12-07T09:30:22;3.90;99.90
6106;DHT22;3083;51.508;7.966;2022-12-07T09:32:49;4.00;99.90
6106;DHT22;3083;51.508;7.966;2022-12-07T09:35:16;4.10;99.90
6106;DHT22;3083;51.508;7.966;2022-12-07T09:37:43;4.20;99.90
6106;DHT22;3083;51.508;7.966;2022-12-07T09:40:11;4.20;99.90
6106;DHT22;3083;51.508;7.966;2022-12-07T09:42:43;4.30;99.90
6106;DHT22;3083;51.508;7.966;2022-12-07T09:45:14;4.30;99.90
6106;DHT22;3083;51.508;7.966;2022-12-07T09:47:41;4.30;99.90
6106;DHT22;3083;51.508;7.966;2022-12-07T09:50:13;4.30;99.90
6106;DHT22;3083;51.508;7.966;2022-12-07T09:52:43;4.30;99.90
6106;DHT22;3083;51.508;7.966;2022-12-07T09:55:14;4.40;99.90
6106;DHT22;3083;51.508;7.966;2022-12-07T09:57:43;4.30;99.90
6106;DHT22;3083;51.508;7.966;2022-12-07T10:00:13;4.30;99.90
6106;DHT22;3083;51.508;7.966;2022-12-07T10:02:42;4.30;99.90
6106;DHT22;3083;51.508;7.966;2022-12-07T10:05:13;4.30;99.90
6106;DHT22;3083;51.508;7.966;2022-12-07T10:07:41;4.30;99.90
6106;DHT22;3083;51.508;7.966;2022-12-07T10:10:15;4.30;99.90
6106;DHT22;3083;51.508;7.966;2022-12-07T10:12:56;4.40;99.90
6106;DHT22;3083;51.508;7.966;2022-12-07T10:15:24;4.40;99.90
6106;DHT22;3083;51.508;7.966;2022-12-07T10:18:21;4.40;99.90
6106;DHT22;3083;51.508;7.966;2022-12-07T10:21:04;4.40;99.90
6106;DHT22;3083;51.508;7.966;2022-12-07T10:23:33;4.40;99.90
6106;DHT22;3083;51.508;7.966;2022-12-07T10:26:20;4.50;99.90
6106;DHT22;3083;51.508;7.966;2022-12-07T10:28:48;4.50;99.90
6106;DHT22;3083;51.508;7.966;2022-12-07T10:31:17;4.50;99.90
6106;DHT22;3083;51.508;7.966;2022-12-07T10:33:50;4.60;99.90
6106;DHT22;3083;51.508;7.966;2022-12-07T10:36:20;4.60;99.90
6106;DHT22;3083;51.508;7.966;2022-12-07T10:38:49;4.70;99.90
6106;DHT22;3083;51.508;7.966;2022-12-07T10:41:16;4.70;99.90
6106;DHT22;3083;51.508;7.966;2022-12-07T10:43:52;4.70;99.90
6106;DHT22;3083;51.508;7.966;2022-12-07T10:49:38;4.70;99.90
6106;DHT22;3083;51.508;7.966;2022-12-07T10:52:16;4.70;99.90
6106;DHT22;3083;51.508;7.966;2022-12-07T10:54:52;4.70;99.90
6106;DHT22;3083;51.508;7.966;2022-12-07T10:57:33;4.70;99.90
6106;DHT22;3083;51.508;7.966;2022-12-07T11:00:10;4.80;99.90
6106;DHT22;3083;51.508;7.966;2022-12-07T11:02:59;4.70;99.90
6106;DHT22;3083;51.508;7.966;2022-12-07T11:05:36;4.70;99.90
6106;DHT22;3083;51.508;7.966;2022-12-07T11:08:14;4.70;99.90
6106;DHT22;3083;51.508;7.966;2022-12-07T11:10:45;4.70;99.90
6106;DHT22;3083;51.508;7.966;2022-12-07T11:13:24;4.70;99.90
6106;DHT22;3083;51.508;7.966;2022-12-07T11:16:20;4.80;99.90
6106;DHT22;3083;51.508;7.966;2022-12-07T11:18:57;4.80;99.90
6106;DHT22;3083;51.508;7.966;2022-12-07T11:21:30;4.90;99.90
6106;DHT22;3083;51.508;7.966;2022-12-07T11:24:03;4.90;99.90
6106;DHT22;3083;51.508;7.966;2022-12-07T11:26:45;4.90;99.90
6106;DHT22;3083;51.508;7.966;2022-12-07T11:29:25;4.90;99.90
6106;DHT22;3083;51.508;7.966;2022-12-07T11:32:04;4.90;99.90
6106;DHT22;3083;51.508;7.966;2022-12-07T11:34:39;4.90;99.90
6106;DHT22;3083;51.508;7.966;2022-12-07T11:37:12;4.90;99.90
6106;DHT22;3083;51.508;7.966;2022-12-07T11:39:46;4.90;99.90
6106;DHT22;3083;51.508;7.966;2022-12-07T11:42:18;4.90;99.90
6106;DHT22;3083;51.508;7.966;2022-12-07T11:44:50;4.90;99.90
6106;DHT22;3083;51.508;7.966;2022-12-07T11:47:25;4.90;99.90
6106;DHT22;3083;51.508;7.966;2022-12-07T11:50:01;4.90;99.90
6106;DHT22;3083;51.508;7.966;2022-12-07T11:52:35;4.90;99.90
6106;DHT22;3083;51.508;7.966;2022-12-07T11:55:05;4.90;99.90
6106;DHT22;3083;51.508;7.966;2022-12-07T11:57:44;4.90;99.90
6106;DHT22;3083;51.508;7.966;2022-12-07T12:00:15;4.80;99.90
6106;DHT22;3083;51.508;7.966;2022-12-07T12:02:51;4.90;99.90
6106;DHT22;3083;51.508;7.966;2022-12-07T12:05:22;4.80;99.90
6106;DHT22;3083;51.508;7.966;2022-12-07T12:07:54;4.90;99.90
6106;DHT22;3083;51.508;7.966;2022-12-07T12:10:27;5.00;99.90
6106;DHT22;3083;51.508;7.966;2022-12-07T12:13:11;5.00;99.90
6106;DHT22;3083;51.508;7.966;2022-12-07T12:15:51;5.00;99.90
6106;DHT22;3083;51.508;7.966;2022-12-07T12:18:37;5.00;99.90
6106;DHT22;3083;51.508;7.966;2022-12-07T12:21:08;5.00;99.90
6106;DHT22;3083;51.508;7.966;2022-12-07T12:23:40;5.00;99.90
6106;DHT22;3083;51.508;7.966;2022-12-07T12:26:15;5.00;99.90
6106;DHT22;3083;51.508;7.966;2022-12-07T12:28:52;5.00;99.90
6106;DHT22;3083;51.508;7.966;2022-12-07T12:31:33;5.10;99.90
6106;DHT22;3083;51.508;7.966;2022-12-07T12:34:04;5.10;99.90
6106;DHT22;3083;51.508;7.966;2022-12-07T12:36:46;5.10;99.90
6106;DHT22;3083;51.508;7.966;2022-12-07T12:39:15;5.10;99.90
6106;DHT22;3083;51.508;7.966;2022-12-07T12:41:58;5.00;99.90
6106;DHT22;3083;51.508;7.966;2022-12-07T12:44:40;5.00;99.90
6106;DHT22;3083;51.508;7.966;2022-12-07T12:47:41;4.90;99.90
6106;DHT22;3083;51.508;7.966;2022-12-07T12:50:20;4.90;99.90
6106;DHT22;3083;51.508;7.966;2022-12-07T12:53:12;5.00;99.90
6106;DHT22;3083;51.508;7.966;2022-12-07T12:58:41;5.00;99.90
6106;DHT22;3083;51.508;7.966;2022-12-07T13:01:44;5.00;99.90
6106;DHT22;3083;51.508;7.966;2022-12-07T13:04:18;5.10;99.90
6106;DHT22;3083;51.508;7.966;2022-12-07T13:06:49;5.10;99.90
6106;DHT22;3083;51.508;7.966;2022-12-07T13:09:20;5.10;99.90
6106;DHT22;3083;51.508;7.966;2022-12-07T13:11:49;5.20;99.90
6106;DHT22;3083;51.508;7.966;2022-12-07T13:14:56;5.20;99.90
6106;DHT22;3083;51.508;7.966;2022-12-07T13:18:04;5.20;99.90
6106;DHT22;3083;51.508;7.966;2022-12-07T13:20:45;5.20;99.90
6106;DHT22;3083;51.508;7.966;2022-12-07T13:23:14;5.20;99.90
6106;DHT22;3083;51.508;7.966;2022-12-07T13:25:48;5.10;99.90
6106;DHT22;3083;51.508;7.966;2022-12-07T13:28:17;5.10;99.90
6106;DHT22;3083;51.508;7.966;2022-12-07T13:30:50;5.10;99.90
6106;DHT22;3083;51.508;7.966;2022-12-07T13:33:20;5.10;99.90
6106;DHT22;3083;51.508;7.966;2022-12-07T13:35:47;5.10;99.90
6106;DHT22;3083;51.508;7.966;2022-12-07T13:38:31;5.00;99.90
6106;DHT22;3083;51.508;7.966;2022-12-07T13:41:04;5.00;99.90
6106;DHT22;3083;51.508;7.966;2022-12-07T13:43:41;5.00;99.90
6106;DHT22;3083;51.508;7.966;2022-12-07T13:46:09;5.00;99.90
6106;DHT22;3083;51.508;7.966;2022-12-07T13:48:44;5.00;99.90
6106;DHT22;3083;51.508;7.966;2022-12-07T13:51:26;5.00;99.90
6106;DHT22;3083;51.508;7.966;2022-12-07T13:53:59;5.00;99.90
6106;DHT22;3083;51.508;7.966;2022-12-07T13:56:31;5.00;99.90
6106;DHT22;3083;51.508;7.966;2022-12-07T13:58:59;4.90;99.90
6106;DHT22;3083;51.508;7.966;2022-12-07T14:01:26;5.00;99.90
6106;DHT22;3083;51.508;7.966;2022-12-07T14:03:54;4.90;99.90
6106;DHT22;3083;51.508;7.966;2022-12-07T14:06:25;4.90;99.90
6106;DHT22;3083;51.508;7.966;2022-12-07T14:09:14;4.90;99.90
6106;DHT22;3083;51.508;7.966;2022-12-07T14:11:43;4.90;99.90
6106;DHT22;3083;51.508;7.966;2022-12-07T14:14:13;4.90;99.90
6106;DHT22;3083;51.508;7.966;2022-12-07T14:16:42;4.90;99.90
6106;DHT22;3083;51.508;7.966;2022-12-07T14:19:43;4.90;99.90
6106;DHT22;3083;51.508;7.966;2022-12-07T14:22:29;4.90;99.90
6106;DHT22;3083;51.508;7.966;2022-12-07T14:25:19;4.90;99.90
6106;DHT22;3083;51.508;7.966;2022-12-07T14:27:55;4.90;99.90
6106;DHT22;3083;51.508;7.966;2022-12-07T14:30:25;4.90;99.90
6106;DHT22;3083;51.508;7.966;2022-12-07T14:32:55;4.90;99.90
6106;DHT22;3083;51.508;7.966;2022-12-07T14:35:23;4.80;99.90
6106;DHT22;3083;51.508;7.966;2022-12-07T14:37:50;4.80;99.90
6106;DHT22;3083;51.508;7.966;2022-12-07T14:40:21;4.70;99.90
6106;DHT22;3083;51.508;7.966;2022-12-07T14:42:51;4.70;99.90
6106;DHT22;3083;51.508;7.966;2022-12-07T14:45:21;4.70;99.90
6106;DHT22;3083;51.508;7.966;2022-12-07T14:47:48;4.60;99.90
6106;DHT22;3083;51.508;7.966;2022-12-07T14:50:17;4.60;99.90
6106;DHT22;3083;51.508;7.966;2022-12-07T14:52:47;4.50;99.90
6106;DHT22;3083;51.508;7.966;2022-12-07T14:55:28;4.50;99.90
6106;DHT22;3083;51.508;7.966;2022-12-07T14:57:56;4.40;99.90
6106;DHT22;3083;51.508;7.966;2022-12-07T15:00:26;4.40;99.90
6106;DHT22;3083;51.508;7.966;2022-12-07T15:02:54;4.30;99.90
6106;DHT22;3083;51.508;7.966;2022-12-07T15:05:21;4.20;99.90
6106;DHT22;3083;51.508;7.966;2022-12-07T15:07:49;4.20;99.90
6106;DHT22;3083;51.508;7.966;2022-12-07T15:10:20;4.10;99.90
6106;DHT22;3083;51.508;7.966;2022-12-07T15:12:48;4.00;99.90
6106;DHT22;3083;51.508;7.966;2022-12-07T15:15:16;4.00;99.90
6106;DHT22;3083;51.508;7.966;2022-12-07T15:17:43;3.90;99.90
6106;DHT22;3083;51.508;7.966;2022-12-07T15:20:12;3.80;99.90
6106;DHT22;3083;51.508;7.966;2022-12-07T15:22:39;3.70;99.90
6106;DHT22;3083;51.508;7.966;2022-12-07T15:25:08;3.60;99.90
6106;DHT22;3083;51.508;7.966;2022-12-07T15:27:35;3.50;99.90
6106;DHT22;3083;51.508;7.966;2022-12-07T15:30:04;3.40;99.90
6106;DHT22;3083;51.508;7.966;2022-12-07T15:32:31;3.40;99.90
6106;DHT22;3083;51.508;7.966;2022-12-07T15:34:58;3.30;99.90
6106;DHT22;3083;51.508;7.966;2022-12-07T15:37:25;3.20;99.90
6106;DHT22;3083;51.508;7.966;2022-12-07T15:39:52;3.20;99.90
6106;DHT22;3083;51.508;7.966;2022-12-07T15:42:19;3.10;99.90
6106;DHT22;3083;51.508;7.966;2022-12-07T15:44:47;3.00;99.90
6106;DHT22;3083;51.508;7.966;2022-12-07T15:47:34;3.00;99.90
6106;DHT22;3083;51.508;7.966;2022-12-07T15:50:04;2.90;99.90
6106;DHT22;3083;51.508;7.966;2022-12-07T15:52:32;2.80;99.90
6106;DHT22;3083;51.508;7.966;2022-12-07T15:54:59;2.70;99.90
6106;DHT22;3083;51.508;7.966;2022-12-07T15:57:28;2.70;99.90
6106;DHT22;3083;51.508;7.966;2022-12-07T15:59:55;2.70;99.90
6106;DHT22;3083;51.508;7.966;2022-12-07T16:02:22;2.60;99.90
6106;DHT22;3083;51.508;7.966;2022-12-07T16:04:51;2.50;99.90
6106;DHT22;3083;51.508;7.966;2022-12-07T16:07:18;2.50;99.90
6106;DHT22;3083;51.508;7.966;2022-12-07T16:09:46;2.50;99.90
6106;DHT22;3083;51.508;7.966;2022-12-07T16:12:13;2.50;99.90
6106;DHT22;3083;51.508;7.966;2022-12-07T16:14:41;2.50;99.90
6106;DHT22;3083;51.508;7.966;2022-12-07T16:17:08;2.50;99.90
6106;DHT22;3083;51.508;7.966;2022-12-07T16:19:36;2.40;99.90
6106;DHT22;3083;51.508;7.966;2022-12-07T16:22:05;2.40;99.90
6106;DHT22;3083;51.508;7.966;2022-12-07T16:24:32;2.40;99.90
6106;DHT22;3083;51.508;7.966;2022-12-07T16:26:59;2.40;99.90
6106;DHT22;3083;51.508;7.966;2022-12-07T16:29:26;2.40;99.90
6106;DHT22;3083;51.508;7.966;2022-12-07T16:31:53;2.40;99.90
6106;DHT22;3083;51.508;7.966;2022-12-07T16:34:20;2.40;99.90
6106;DHT22;3083;51.508;7.966;2022-12-07T16:36:47;2.40;99.90
6106;DHT22;3083;51.508;7.966;2022-12-07T16:39:15;2.40;99.90
6106;DHT22;3083;51.508;7.966;2022-12-07T16:41:43;2.50;99.90
6106;DHT22;3083;51.508;7.966;2022-12-07T16:44:11;2.50;99.90
6106;DHT22;3083;51.508;7.966;2022-12-07T16:46:39;2.40;99.90
6106;DHT22;3083;51.508;7.966;2022-12-07T16:49:08;2.40;99.90
6106;DHT22;3083;51.508;7.966;2022-12-07T16:51:35;2.50;99.90